sensor_id;sensor_type;location;lat;lon;timestamp;temperature;humidity
12130;DHT22;6128;59.340;18.040;2023-02-17T00:00:18;4.20;99.90
12130;DHT22;6128;59.340;18.040;2023-02-17T00:02:46;4.20;99.90
12130;DHT22;6128;59.340;18.040;2023-02-17T00:05:15;4.20;99.90
12130;DHT22;6128;59.340;18.040;2023-02-17T00:07:42;4.10;99.90
12130;DHT22;6128;59.340;18.040;2023-02-17T00:10:09;4.10;99.90
12130;DHT22;6128;59.340;18.040;2023-02-17T00:12:37;4.10;99.90
12130;DHT22;6128;59.340;18.040;2023-02-17T00:15:05;4.10;99.90
12130;DHT22;6128;59.340;18.040;2023-02-17T00:17:32;4.10;99.90
12130;DHT22;6128;59.340;18.040;2023-02-17T00:19:59;4.10;99.90
12130;DHT22;6128;59.340;18.040;2023-02-17T00:22:28;4.10;99.90
12130;DHT22;6128;59.340;18.040;2023-02-17T00:24:55;4.10;99.90
12130;DHT22;6128;59.340;18.040;2023-02-17T00:27:22;4.10;99.90
12130;DHT22;6128;59.340;18.040;2023-02-17T00:29:49;4.00;99.90
12130;DHT22;6128;59.340;18.040;2023-02-17T00:32:20;4.00;99.90
12130;DHT22;6128;59.340;18.040;2023-02-17T00:34:47;4.00;99.90
12130;DHT22;6128;59.340;18.040;2023-02-17T00:37:14;4.00;99.90
12130;DHT22;6128;59.340;18.040;2023-02-17T00:39:43;4.00;99.90
12130;DHT22;6128;59.340;18.040;2023-02-17T00:42:10;4.00;99.90
12130;DHT22;6128;59.340;18.040;2023-02-17T00:44:37;4.00;99.90
12130;DHT22;6128;59.340;18.040;2023-02-17T00:47:04;4.00;99.90
12130;DHT22;6128;59.340;18.040;2023-02-17T00:49:32;4.00;99.90
12130;DHT22;6128;59.340;18.040;2023-02-17T00:52:00;4.00;99.90
12130;DHT22;6128;59.340;18.040;2023-02-17T00:54:27;4.00;99.90
12130;DHT22;6128;59.340;18.040;2023-02-17T00:56:56;4.00;99.90
12130;DHT22;6128;59.340;18.040;2023-02-17T00:59:23;4.00;99.90
12130;DHT22;6128;59.340;18.040;2023-02-17T01:01:50;4.00;99.90
12130;DHT22;6128;59.340;18.040;2023-02-17T01:04:18;4.00;99.90
12130;DHT22;6128;59.340;18.040;2023-02-17T01:06:45;4.00;99.90
12130;DHT22;6128;59.340;18.040;2023-02-17T01:09:13;4.00;99.90
12130;DHT22;6128;59.340;18.040;2023-02-17T01:11:41;4.00;99.90
12130;DHT22;6128;59.340;18.040;2023-02-17T01:14:11;4.00;99.90
12130;DHT22;6128;59.340;18.040;2023-02-17T01:16:40;4.00;99.90
12130;DHT22;6128;59.340;18.040;2023-02-17T01:19:11;4.00;99.90
12130;DHT22;6128;59.340;18.040;2023-02-17T01:21:39;4.00;99.90
12130;DHT22;6128;59.340;18.040;2023-02-17T01:24:07;4.00;99.90
12130;DHT22;6128;59.340;18.040;2023-02-17T01:26:35;4.00;99.90
12130;DHT22;6128;59.340;18.040;2023-02-17T01:29:05;4.10;99.90
12130;DHT22;6128;59.340;18.040;2023-02-17T01:31:34;4.10;99.90
12130;DHT22;6128;59.340;18.040;2023-02-17T01:34:02;4.10;99.90
12130;DHT22;6128;59.340;18.040;2023-02-17T01:36:29;4.10;99.90
12130;DHT22;6128;59.340;18.040;2023-02-17T01:38:57;4.10;99.90
12130;DHT22;6128;59.340;18.040;2023-02-17T01:41:25;4.10;99.90
12130;DHT22;6128;59.340;18.040;2023-02-17T01:44:20;4.10;99.90
12130;DHT22;6128;59.340;18.040;2023-02-17T01:46:50;4.10;99.90
12130;DHT22;6128;59.340;18.040;2023-02-17T01:49:28;4.10;99.90
12130;DHT22;6128;59.340;18.040;2023-02-17T01:52:01;4.10;99.90
12130;DHT22;6128;59.340;18.040;2023-02-17T01:54:35;4.20;99.90
12130;DHT22;6128;59.340;18.040;2023-02-17T01:57:04;4.20;99.90
12130;DHT22;6128;59.340;18.040;2023-02-17T01:59:31;4.20;99.90
12130;DHT22;6128;59.340;18.040;2023-02-17T02:02:02;4.30;99.90
12130;DHT22;6128;59.340;18.040;2023-02-17T02:04:32;4.30;99.90
12130;DHT22;6128;59.340;18.040;2023-02-17T02:07:00;4.30;99.90
12130;DHT22;6128;59.340;18.040;2023-02-17T02:09:31;4.30;99.90
12130;DHT22;6128;59.340;18.040;2023-02-17T02:12:01;4.40;99.90
12130;DHT22;6128;59.340;18.040;2023-02-17T02:14:28;4.40;99.90
12130;DHT22;6128;59.340;18.040;2023-02-17T02:17:03;4.50;99.90
12130;DHT22;6128;59.340;18.040;2023-02-17T02:26:14;4.50;99.90
12130;DHT22;6128;59.340;18.040;2023-02-17T02:28:57;4.50;99.90
12130;DHT22;6128;59.340;18.040;2023-02-17T02:31:32;4.50;99.90
12130;DHT22;6128;59.340;18.040;2023-02-17T02:34:06;4.40;99.90
12130;DHT22;6128;59.340;18.040;2023-02-17T02:36:37;4.40;99.90
12130;DHT22;6128;59.340;18.040;2023-02-17T02:39:10;4.40;99.90
12130;DHT22;6128;59.340;18.040;2023-02-17T02:41:41;4.50;99.90
12130;DHT22;6128;59.340;18.040;2023-02-17T02:44:12;4.50;99.90
12130;DHT22;6128;59.340;18.040;2023-02-17T02:46:40;4.40;99.90
12130;DHT22;6128;59.340;18.040;2023-02-17T02:49:09;4.50;99.90
12130;DHT22;6128;59.340;18.040;2023-02-17T02:51:45;4.50;99.90
12130;DHT22;6128;59.340;18.040;2023-02-17T02:54:40;4.50;99.90
12130;DHT22;6128;59.340;18.040;2023-02-17T02:57:20;4.50;99.90
12130;DHT22;6128;59.340;18.040;2023-02-17T03:00:01;4.50;99.90
12130;DHT22;6128;59.340;18.040;2023-02-17T03:02:33;4.50;99.90
12130;DHT22;6128;59.340;18.040;2023-02-17T03:05:10;4.50;99.90
12130;DHT22;6128;59.340;18.040;2023-02-17T03:07:41;4.50;99.90
12130;DHT22;6128;59.340;18.040;2023-02-17T03:10:10;4.50;99.90
12130;DHT22;6128;59.340;18.040;2023-02-17T03:12:39;4.50;99.90
12130;DHT22;6128;59.340;18.040;2023-02-17T03:15:13;4.60;99.90
12130;DHT22;6128;59.340;18.040;2023-02-17T03:17:41;4.60;99.90
12130;DHT22;6128;59.340;18.040;2023-02-17T03:20:12;4.60;99.90
12130;DHT22;6128;59.340;18.040;2023-02-17T03:22:43;4.60;99.90
12130;DHT22;6128;59.340;18.040;2023-02-17T03:25:11;4.50;99.90
12130;DHT22;6128;59.340;18.040;2023-02-17T03:27:38;4.50;99.90
12130;DHT22;6128;59.340;18.040;2023-02-17T03:30:06;4.50;99.90
12130;DHT22;6128;59.340;18.040;2023-02-17T03:32:40;4.50;99.90
12130;DHT22;6128;59.340;18.040;2023-02-17T03:35:26;4.50;99.90
12130;DHT22;6128;59.340;18.040;2023-02-17T03:38:01;4.50;99.90
12130;DHT22;6128;59.340;18.040;2023-02-17T03:40:30;4.50;99.90
12130;DHT22;6128;59.340;18.040;2023-02-17T03:42:57;4.50;99.90
12130;DHT22;6128;59.340;18.040;2023-02-17T03:45:25;4.50;99.90
12130;DHT22;6128;59.340;18.040;2023-02-17T03:47:52;4.60;99.90
12130;DHT22;6128;59.340;18.040;2023-02-17T03:50:20;4.50;99.90
12130;DHT22;6128;59.340;18.040;2023-02-17T03:52:48;4.50;99.90
12130;DHT22;6128;59.340;18.040;2023-02-17T03:55:15;4.60;99.90
12130;DHT22;6128;59.340;18.040;2023-02-17T03:57:42;4.60;99.90
12130;DHT22;6128;59.340;18.040;2023-02-17T04:00:10;4.60;99.90
12130;DHT22;6128;59.340;18.040;2023-02-17T04:02:37;4.60;99.90
12130;DHT22;6128;59.340;18.040;2023-02-17T04:05:05;4.70;99.90
12130;DHT22;6128;59.340;18.040;2023-02-17T04:07:33;4.70;99.90
12130;DHT22;6128;59.340;18.040;2023-02-17T04:10:00;4.70;99.90
12130;DHT22;6128;59.340;18.040;2023-02-17T04:12:28;4.70;99.90
12130;DHT22;6128;59.340;18.040;2023-02-17T04:14:55;4.70;99.90
12130;DHT22;6128;59.340;18.040;2023-02-17T04:17:22;4.70;99.90
12130;DHT22;6128;59.340;18.040;2023-02-17T04:19:49;4.70;99.90
12130;DHT22;6128;59.340;18.040;2023-02-17T04:22:16;4.70;99.90
12130;DHT22;6128;59.340;18.040;2023-02-17T04:24:45;4.70;99.90
12130;DHT22;6128;59.340;18.040;2023-02-17T04:27:12;4.70;99.90
12130;DHT22;6128;59.340;18.040;2023-02-17T04:29:39;4.70;99.90
12130;DHT22;6128;59.340;18.040;2023-02-17T04:32:07;4.80;99.90
12130;DHT22;6128;59.340;18.040;2023-02-17T04:34:34;4.80;99.90
12130;DHT22;6128;59.340;18.040;2023-02-17T04:37:01;4.80;99.90
12130;DHT22;6128;59.340;18.040;2023-02-17T04:39:28;4.80;99.90
12130;DHT22;6128;59.340;18.040;2023-02-17T04:41:57;4.90;99.90
12130;DHT22;6128;59.340;18.040;2023-02-17T04:44:24;4.90;99.90
12130;DHT22;6128;59.340;18.040;2023-02-17T04:46:52;4.90;99.90
12130;DHT22;6128;59.340;18.040;2023-02-17T04:49:19;4.90;99.90
12130;DHT22;6128;59.340;18.040;2023-02-17T04:51:46;4.90;99.90
12130;DHT22;6128;59.340;18.040;2023-02-17T04:54:13;4.90;99.90
12130;DHT22;6128;59.340;18.040;2023-02-17T04:56:40;4.90;99.90
12130;DHT22;6128;59.340;18.040;2023-02-17T04:59:09;4.90;99.90
12130;DHT22;6128;59.340;18.040;2023-02-17T05:01:36;5.00;99.90
12130;DHT22;6128;59.340;18.040;2023-02-17T05:04:03;5.00;99.90
12130;DHT22;6128;59.340;18.040;2023-02-17T05:06:30;5.00;99.90
12130;DHT22;6128;59.340;18.040;2023-02-17T05:08:58;5.00;99.90
12130;DHT22;6128;59.340;18.040;2023-02-17T05:11:25;5.00;99.90
12130;DHT22;6128;59.340;18.040;2023-02-17T05:13:52;5.00;99.90
12130;DHT22;6128;59.340;18.040;2023-02-17T05:16:21;5.00;99.90
12130;DHT22;6128;59.340;18.040;2023-02-17T05:18:48;5.00;99.90
12130;DHT22;6128;59.340;18.040;2023-02-17T05:21:15;5.00;99.90
12130;DHT22;6128;59.340;18.040;2023-02-17T05:23:42;5.00;99.90
12130;DHT22;6128;59.340;18.040;2023-02-17T05:26:09;5.00;99.90
12130;DHT22;6128;59.340;18.040;2023-02-17T05:28:37;5.00;99.90
12130;DHT22;6128;59.340;18.040;2023-02-17T05:31:04;5.00;99.90
12130;DHT22;6128;59.340;18.040;2023-02-17T05:33:33;5.00;99.90
12130;DHT22;6128;59.340;18.040;2023-02-17T05:36:01;5.00;99.90
12130;DHT22;6128;59.340;18.040;2023-02-17T05:38:31;5.00;99.90
12130;DHT22;6128;59.340;18.040;2023-02-17T05:40:58;5.10;99.90
12130;DHT22;6128;59.340;18.040;2023-02-17T05:43:25;5.00;99.90
12130;DHT22;6128;59.340;18.040;2023-02-17T05:45:52;5.00;99.90
12130;DHT22;6128;59.340;18.040;2023-02-17T05:48:22;5.00;99.90
12130;DHT22;6128;59.340;18.040;2023-02-17T05:50:50;5.10;99.90
12130;DHT22;6128;59.340;18.040;2023-02-17T05:53:18;5.10;99.90
12130;DHT22;6128;59.340;18.040;2023-02-17T05:55:45;5.10;99.90
12130;DHT22;6128;59.340;18.040;2023-02-17T05:58:12;5.10;99.90
12130;DHT22;6128;59.340;18.040;2023-02-17T06:00:39;5.10;99.90
12130;DHT22;6128;59.340;18.040;2023-02-17T06:03:06;5.10;99.90
12130;DHT22;6128;59.340;18.040;2023-02-17T06:05:33;5.00;99.90
12130;DHT22;6128;59.340;18.040;2023-02-17T06:08:02;5.10;99.90
12130;DHT22;6128;59.340;18.040;2023-02-17T06:10:30;5.10;99.90
12130;DHT22;6128;59.340;18.040;2023-02-17T06:12:57;5.00;99.90
12130;DHT22;6128;59.340;18.040;2023-02-17T06:15:24;5.00;99.90
12130;DHT22;6128;59.340;18.040;2023-02-17T06:17:51;5.10;99.90
12130;DHT22;6128;59.340;18.040;2023-02-17T06:20:19;5.10;99.90
12130;DHT22;6128;59.340;18.040;2023-02-17T06:22:46;5.10;99.90
12130;DHT22;6128;59.340;18.040;2023-02-17T06:25:14;5.10;99.90
12130;DHT22;6128;59.340;18.040;2023-02-17T06:27:42;5.10;99.90
12130;DHT22;6128;59.340;18.040;2023-02-17T06:30:10;5.10;99.90
12130;DHT22;6128;59.340;18.040;2023-02-17T06:32:37;5.10;99.90
12130;DHT22;6128;59.340;18.040;2023-02-17T06:35:05;5.10;99.90
12130;DHT22;6128;59.340;18.040;2023-02-17T06:37:32;5.10;99.90
12130;DHT22;6128;59.340;18.040;2023-02-17T06:39:59;5.10;99.90
12130;DHT22;6128;59.340;18.040;2023-02-17T06:42:29;5.10;99.90
12130;DHT22;6128;59.340;18.040;2023-02-17T06:44:57;5.10;99.90
12130;DHT22;6128;59.340;18.040;2023-02-17T06:47:25;5.10;99.90
12130;DHT22;6128;59.340;18.040;2023-02-17T06:49:52;5.10;99.90
12130;DHT22;6128;59.340;18.040;2023-02-17T06:52:19;5.10;99.90
12130;DHT22;6128;59.340;18.040;2023-02-17T06:54:47;5.10;99.90
12130;DHT22;6128;59.340;18.040;2023-02-17T06:57:14;5.10;99.90
12130;DHT22;6128;59.340;18.040;2023-02-17T06:59:43;5.10;99.90
12130;DHT22;6128;59.340;18.040;2023-02-17T07:02:10;5.10;99.90
12130;DHT22;6128;59.340;18.040;2023-02-17T07:04:38;5.10;99.90
12130;DHT22;6128;59.340;18.040;2023-02-17T07:07:05;5.10;99.90
12130;DHT22;6128;59.340;18.040;2023-02-17T07:09:32;5.20;99.90
12130;DHT22;6128;59.340;18.040;2023-02-17T07:12:00;5.20;99.90
12130;DHT22;6128;59.340;18.040;2023-02-17T07:14:27;5.30;99.90
12130;DHT22;6128;59.340;18.040;2023-02-17T07:16:56;5.30;99.90
12130;DHT22;6128;59.340;18.040;2023-02-17T07:19:24;5.30;99.90
12130;DHT22;6128;59.340;18.040;2023-02-17T07:21:51;5.30;99.90
12130;DHT22;6128;59.340;18.040;2023-02-17T07:24:18;5.30;99.90
12130;DHT22;6128;59.340;18.040;2023-02-17T07:26:46;5.30;99.90
12130;DHT22;6128;59.340;18.040;2023-02-17T07:29:13;5.30;99.90
12130;DHT22;6128;59.340;18.040;2023-02-17T07:31:41;5.30;99.90
12130;DHT22;6128;59.340;18.040;2023-02-17T07:34:09;5.30;99.90
12130;DHT22;6128;59.340;18.040;2023-02-17T07:36:37;5.30;99.90
12130;DHT22;6128;59.340;18.040;2023-02-17T07:39:04;5.30;99.90
12130;DHT22;6128;59.340;18.040;2023-02-17T07:41:31;5.40;99.90
12130;DHT22;6128;59.340;18.040;2023-02-17T07:43:59;5.40;99.90
12130;DHT22;6128;59.340;18.040;2023-02-17T07:46:26;5.40;99.90
12130;DHT22;6128;59.340;18.040;2023-02-17T07:48:55;5.40;99.90
12130;DHT22;6128;59.340;18.040;2023-02-17T07:51:25;5.40;99.90
12130;DHT22;6128;59.340;18.040;2023-02-17T07:53:52;5.50;99.90
12130;DHT22;6128;59.340;18.040;2023-02-17T07:56:21;5.50;99.90
12130;DHT22;6128;59.340;18.040;2023-02-17T07:58:49;5.40;99.90
12130;DHT22;6128;59.340;18.040;2023-02-17T08:01:18;5.50;99.90
12130;DHT22;6128;59.340;18.040;2023-02-17T08:03:46;5.50;99.90
12130;DHT22;6128;59.340;18.040;2023-02-17T08:06:14;5.60;99.90
12130;DHT22;6128;59.340;18.040;2023-02-17T08:08:44;5.60;99.90
12130;DHT22;6128;59.340;18.040;2023-02-17T08:11:29;5.60;99.90
12130;DHT22;6128;59.340;18.040;2023-02-17T08:14:14;5.60;99.90
12130;DHT22;6128;59.340;18.040;2023-02-17T08:16:41;5.70;99.90
12130;DHT22;6128;59.340;18.040;2023-02-17T08:19:09;5.70;99.90
12130;DHT22;6128;59.340;18.040;2023-02-17T08:21:36;5.80;99.90
12130;DHT22;6128;59.340;18.040;2023-02-17T08:24:05;5.80;99.90
12130;DHT22;6128;59.340;18.040;2023-02-17T08:26:32;5.80;99.90
12130;DHT22;6128;59.340;18.040;2023-02-17T08:29:00;5.90;99.90
12130;DHT22;6128;59.340;18.040;2023-02-17T08:31:29;5.90;99.90
12130;DHT22;6128;59.340;18.040;2023-02-17T08:33:57;5.90;99.90
12130;DHT22;6128;59.340;18.040;2023-02-17T08:36:25;6.00;99.90
12130;DHT22;6128;59.340;18.040;2023-02-17T08:38:52;6.00;99.90
12130;DHT22;6128;59.340;18.040;2023-02-17T08:41:24;6.00;99.90
12130;DHT22;6128;59.340;18.040;2023-02-17T08:43:54;6.00;99.90
12130;DHT22;6128;59.340;18.040;2023-02-17T08:46:21;6.00;99.90
12130;DHT22;6128;59.340;18.040;2023-02-17T08:48:50;6.00;99.90
12130;DHT22;6128;59.340;18.040;2023-02-17T08:51:19;6.00;99.90
12130;DHT22;6128;59.340;18.040;2023-02-17T08:53:50;6.10;99.90
12130;DHT22;6128;59.340;18.040;2023-02-17T08:56:17;6.00;99.90
12130;DHT22;6128;59.340;18.040;2023-02-17T08:58:46;6.10;99.90
12130;DHT22;6128;59.340;18.040;2023-02-17T09:01:13;6.20;99.90
12130;DHT22;6128;59.340;18.040;2023-02-17T09:03:43;6.20;99.90
12130;DHT22;6128;59.340;18.040;2023-02-17T09:06:10;6.20;99.90
12130;DHT22;6128;59.340;18.040;2023-02-17T09:08:38;6.20;99.90
12130;DHT22;6128;59.340;18.040;2023-02-17T09:11:06;6.30;99.90
12130;DHT22;6128;59.340;18.040;2023-02-17T09:13:33;6.40;99.90
12130;DHT22;6128;59.340;18.040;2023-02-17T09:16:02;6.50;99.90
12130;DHT22;6128;59.340;18.040;2023-02-17T09:18:30;6.60;99.90
12130;DHT22;6128;59.340;18.040;2023-02-17T09:20:57;6.60;99.90
12130;DHT22;6128;59.340;18.040;2023-02-17T09:23:25;6.50;99.90
12130;DHT22;6128;59.340;18.040;2023-02-17T09:26:00;6.40;99.90
12130;DHT22;6128;59.340;18.040;2023-02-17T09:28:30;6.40;99.90
12130;DHT22;6128;59.340;18.040;2023-02-17T09:30:57;6.40;99.90
12130;DHT22;6128;59.340;18.040;2023-02-17T09:33:25;6.50;99.90
12130;DHT22;6128;59.340;18.040;2023-02-17T09:35:53;6.50;99.90
12130;DHT22;6128;59.340;18.040;2023-02-17T09:38:20;6.50;99.90
12130;DHT22;6128;59.340;18.040;2023-02-17T09:40:49;6.50;99.90
12130;DHT22;6128;59.340;18.040;2023-02-17T09:43:19;6.50;99.90
12130;DHT22;6128;59.340;18.040;2023-02-17T09:45:51;6.60;99.90
12130;DHT22;6128;59.340;18.040;2023-02-17T09:48:21;6.60;99.90
12130;DHT22;6128;59.340;18.040;2023-02-17T09:50:54;6.60;99.90
12130;DHT22;6128;59.340;18.040;2023-02-17T09:53:25;6.60;99.90
12130;DHT22;6128;59.340;18.040;2023-02-17T09:56:00;6.60;99.90
12130;DHT22;6128;59.340;18.040;2023-02-17T09:58:33;6.60;99.90
12130;DHT22;6128;59.340;18.040;2023-02-17T10:01:05;6.60;99.90
12130;DHT22;6128;59.340;18.040;2023-02-17T10:03:37;6.60;99.90
12130;DHT22;6128;59.340;18.040;2023-02-17T10:06:12;6.60;99.90
12130;DHT22;6128;59.340;18.040;2023-02-17T10:08:46;6.60;99.90
12130;DHT22;6128;59.340;18.040;2023-02-17T10:11:21;6.60;99.90
12130;DHT22;6128;59.340;18.040;2023-02-17T10:13:51;6.60;99.90
12130;DHT22;6128;59.340;18.040;2023-02-17T10:16:24;6.60;99.90
12130;DHT22;6128;59.340;18.040;2023-02-17T10:18:59;6.60;99.90
12130;DHT22;6128;59.340;18.040;2023-02-17T10:21:30;6.50;99.90
12130;DHT22;6128;59.340;18.040;2023-02-17T10:23:58;6.40;99.90
12130;DHT22;6128;59.340;18.040;2023-02-17T10:26:38;6.40;99.90
12130;DHT22;6128;59.340;18.040;2023-02-17T10:29:13;6.30;99.90
12130;DHT22;6128;59.340;18.040;2023-02-17T10:31:47;6.20;99.90
12130;DHT22;6128;59.340;18.040;2023-02-17T10:34:28;6.20;99.90
12130;DHT22;6128;59.340;18.040;2023-02-17T10:37:03;6.20;99.90
12130;DHT22;6128;59.340;18.040;2023-02-17T10:39:45;6.20;99.90
12130;DHT22;6128;59.340;18.040;2023-02-17T10:42:17;6.20;99.90
12130;DHT22;6128;59.340;18.040;2023-02-17T10:44:47;6.20;99.90
12130;DHT22;6128;59.340;18.040;2023-02-17T10:47:15;6.20;99.90
12130;DHT22;6128;59.340;18.040;2023-02-17T10:49:45;6.20;99.90
12130;DHT22;6128;59.340;18.040;2023-02-17T10:52:16;6.10;99.90
12130;DHT22;6128;59.340;18.040;2023-02-17T10:54:47;6.10;99.90
12130;DHT22;6128;59.340;18.040;2023-02-17T10:57:16;6.10;99.90
12130;DHT22;6128;59.340;18.040;2023-02-17T10:59:49;6.10;99.90
12130;DHT22;6128;59.340;18.040;2023-02-17T11:02:19;6.10;99.90
12130;DHT22;6128;59.340;18.040;2023-02-17T11:04:50;6.10;99.90
12130;DHT22;6128;59.340;18.040;2023-02-17T11:07:31;6.10;99.90
12130;DHT22;6128;59.340;18.040;2023-02-17T11:10:00;6.10;99.90
12130;DHT22;6128;59.340;18.040;2023-02-17T11:12:32;6.10;99.90
12130;DHT22;6128;59.340;18.040;2023-02-17T11:15:03;6.10;99.90
12130;DHT22;6128;59.340;18.040;2023-02-17T11:17:35;6.10;99.90
12130;DHT22;6128;59.340;18.040;2023-02-17T11:20:05;6.20;99.90
12130;DHT22;6128;59.340;18.040;2023-02-17T11:22:39;6.20;99.90
12130;DHT22;6128;59.340;18.040;2023-02-17T11:25:21;6.20;99.90
12130;DHT22;6128;59.340;18.040;2023-02-17T11:27:52;6.20;99.90
12130;DHT22;6128;59.340;18.040;2023-02-17T11:30:20;6.10;99.90
12130;DHT22;6128;59.340;18.040;2023-02-17T11:32:48;6.00;99.90
12130;DHT22;6128;59.340;18.040;2023-02-17T11:35:24;5.90;99.90
12130;DHT22;6128;59.340;18.040;2023-02-17T11:38:00;5.90;99.90
12130;DHT22;6128;59.340;18.040;2023-02-17T11:40:30;5.90;99.90
12130;DHT22;6128;59.340;18.040;2023-02-17T11:42:58;5.80;99.90
12130;DHT22;6128;59.340;18.040;2023-02-17T11:45:32;5.80;99.90
12130;DHT22;6128;59.340;18.040;2023-02-17T11:48:17;5.80;99.90
12130;DHT22;6128;59.340;18.040;2023-02-17T11:50:52;5.80;99.90
12130;DHT22;6128;59.340;18.040;2023-02-17T11:53:34;5.70;99.90
12130;DHT22;6128;59.340;18.040;2023-02-17T11:56:10;5.70;99.90
12130;DHT22;6128;59.340;18.040;2023-02-17T11:58:57;5.70;99.90
12130;DHT22;6128;59.340;18.040;2023-02-17T12:01:45;5.70;99.90
12130;DHT22;6128;59.340;18.040;2023-02-17T12:04:23;5.60;99.90
12130;DHT22;6128;59.340;18.040;2023-02-17T12:06:58;5.60;99.90
12130;DHT22;6128;59.340;18.040;2023-02-17T12:09:35;5.60;99.90
12130;DHT22;6128;59.340;18.040;2023-02-17T12:12:16;5.60;99.90
12130;DHT22;6128;59.340;18.040;2023-02-17T12:15:00;5.50;99.90
12130;DHT22;6128;59.340;18.040;2023-02-17T12:17:38;5.50;99.90
12130;DHT22;6128;59.340;18.040;2023-02-17T12:20:21;5.40;99.90
12130;DHT22;6128;59.340;18.040;2023-02-17T12:23:01;5.30;99.90
12130;DHT22;6128;59.340;18.040;2023-02-17T12:25:32;5.20;99.90
12130;DHT22;6128;59.340;18.040;2023-02-17T12:28:23;5.20;99.90
12130;DHT22;6128;59.340;18.040;2023-02-17T12:30:58;5.10;99.90
12130;DHT22;6128;59.340;18.040;2023-02-17T12:33:37;5.10;99.90
12130;DHT22;6128;59.340;18.040;2023-02-17T12:36:14;5.10;99.90
12130;DHT22;6128;59.340;18.040;2023-02-17T12:38:44;5.10;99.90
12130;DHT22;6128;59.340;18.040;2023-02-17T12:41:16;5.10;99.90
12130;DHT22;6128;59.340;18.040;2023-02-17T12:43:47;5.10;99.90
12130;DHT22;6128;59.340;18.040;2023-02-17T12:46:18;5.10;99.90
12130;DHT22;6128;59.340;18.040;2023-02-17T12:48:49;5.00;99.90
12130;DHT22;6128;59.340;18.040;2023-02-17T12:51:21;5.10;99.90
12130;DHT22;6128;59.340;18.040;2023-02-17T12:53:54;5.00;99.90
12130;DHT22;6128;59.340;18.040;2023-02-17T12:56:47;5.00;99.90
12130;DHT22;6128;59.340;18.040;2023-02-17T12:59:18;5.00;99.90
12130;DHT22;6128;59.340;18.040;2023-02-17T13:01:53;5.00;99.90
12130;DHT22;6128;59.340;18.040;2023-02-17T13:04:22;5.00;99.90
12130;DHT22;6128;59.340;18.040;2023-02-17T13:07:05;5.00;99.90
12130;DHT22;6128;59.340;18.040;2023-02-17T13:09:35;4.90;99.90
12130;DHT22;6128;59.340;18.040;2023-02-17T13:14:53;4.80;99.90
12130;DHT22;6128;59.340;18.040;2023-02-17T13:17:26;4.80;99.90
12130;DHT22;6128;59.340;18.040;2023-02-17T13:20:19;4.80;99.90
12130;DHT22;6128;59.340;18.040;2023-02-17T13:22:49;4.70;99.90
12130;DHT22;6128;59.340;18.040;2023-02-17T13:25:28;4.60;99.90
12130;DHT22;6128;59.340;18.040;2023-02-17T13:27:58;4.60;99.90
12130;DHT22;6128;59.340;18.040;2023-02-17T13:30:29;4.50;99.90
12130;DHT22;6128;59.340;18.040;2023-02-17T13:33:01;4.50;99.90
12130;DHT22;6128;59.340;18.040;2023-02-17T13:35:32;4.40;99.90
12130;DHT22;6128;59.340;18.040;2023-02-17T13:38:00;4.40;99.90
12130;DHT22;6128;59.340;18.040;2023-02-17T13:40:35;4.30;99.90
12130;DHT22;6128;59.340;18.040;2023-02-17T13:43:14;4.30;99.90
12130;DHT22;6128;59.340;18.040;2023-02-17T13:45:46;4.20;99.90
12130;DHT22;6128;59.340;18.040;2023-02-17T13:48:22;4.20;99.90
12130;DHT22;6128;59.340;18.040;2023-02-17T13:50:51;4.10;99.90
12130;DHT22;6128;59.340;18.040;2023-02-17T13:53:23;4.10;99.90
12130;DHT22;6128;59.340;18.040;2023-02-17T13:55:51;4.10;99.90
12130;DHT22;6128;59.340;18.040;2023-02-17T13:58:25;4.10;99.90
12130;DHT22;6128;59.340;18.040;2023-02-17T14:00:55;4.10;99.90
12130;DHT22;6128;59.340;18.040;2023-02-17T14:03:24;4.10;99.90
12130;DHT22;6128;59.340;18.040;2023-02-17T14:05:53;4.10;99.90
12130;DHT22;6128;59.340;18.040;2023-02-17T14:08:28;4.10;99.90
12130;DHT22;6128;59.340;18.040;2023-02-17T14:10:56;4.10;99.90
12130;DHT22;6128;59.340;18.040;2023-02-17T14:13:25;4.10;99.90
12130;DHT22;6128;59.340;18.040;2023-02-17T14:15:54;4.10;99.90
12130;DHT22;6128;59.340;18.040;2023-02-17T14:18:31;4.10;99.90
12130;DHT22;6128;59.340;18.040;2023-02-17T14:21:07;4.10;99.90
12130;DHT22;6128;59.340;18.040;2023-02-17T14:23:44;4.10;99.90
12130;DHT22;6128;59.340;18.040;2023-02-17T14:26:14;4.10;99.90
12130;DHT22;6128;59.340;18.040;2023-02-17T14:28:53;4.10;99.90
12130;DHT22;6128;59.340;18.040;2023-02-17T14:31:21;4.10;99.90
12130;DHT22;6128;59.340;18.040;2023-02-17T14:33:54;4.10;99.90
12130;DHT22;6128;59.340;18.040;2023-02-17T14:36:31;4.00;99.90
12130;DHT22;6128;59.340;18.040;2023-02-17T14:38:59;4.00;99.90
12130;DHT22;6128;59.340;18.040;2023-02-17T14:41:27;4.00;99.90
12130;DHT22;6128;59.340;18.040;2023-02-17T14:44:05;4.00;99.90
12130;DHT22;6128;59.340;18.040;2023-02-17T14:46:34;4.00;99.90
12130;DHT22;6128;59.340;18.040;2023-02-17T14:49:02;4.00;99.90
12130;DHT22;6128;59.340;18.040;2023-02-17T14:51:32;4.00;99.90
12130;DHT22;6128;59.340;18.040;2023-02-17T14:54:01;4.00;99.90
12130;DHT22;6128;59.340;18.040;2023-02-17T14:56:33;4.00;99.90
12130;DHT22;6128;59.340;18.040;2023-02-17T14:59:01;4.00;99.90
12130;DHT22;6128;59.340;18.040;2023-02-17T15:01:30;4.00;99.90
12130;DHT22;6128;59.340;18.040;2023-02-17T15:03:57;4.00;99.90
12130;DHT22;6128;59.340;18.040;2023-02-17T15:06:26;4.00;99.90
12130;DHT22;6128;59.340;18.040;2023-02-17T15:08:53;4.00;99.90
12130;DHT22;6128;59.340;18.040;2023-02-17T15:11:26;4.00;99.90
12130;DHT22;6128;59.340;18.040;2023-02-17T15:13:54;4.00;99.90
12130;DHT22;6128;59.340;18.040;2023-02-17T15:16:22;4.00;99.90
12130;DHT22;6128;59.340;18.040;2023-02-17T15:18:50;4.00;99.90
12130;DHT22;6128;59.340;18.040;2023-02-17T15:21:25;4.00;99.90
12130;DHT22;6128;59.340;18.040;2023-02-17T15:23:52;3.90;99.90
12130;DHT22;6128;59.340;18.040;2023-02-17T15:26:20;4.00;99.90
12130;DHT22;6128;59.340;18.040;2023-02-17T15:28:47;4.00;99.90
12130;DHT22;6128;59.340;18.040;2023-02-17T15:31:15;4.00;99.90
12130;DHT22;6128;59.340;18.040;2023-02-17T15:33:48;4.00;99.90
12130;DHT22;6128;59.340;18.040;2023-02-17T15:36:18;4.00;99.90
12130;DHT22;6128;59.340;18.040;2023-02-17T15:38:45;4.00;99.90
12130;DHT22;6128;59.340;18.040;2023-02-17T15:41:13;4.00;99.90
12130;DHT22;6128;59.340;18.040;2023-02-17T15:43:43;4.00;99.90
12130;DHT22;6128;59.340;18.040;2023-02-17T15:46:13;4.00;99.90
12130;DHT22;6128;59.340;18.040;2023-02-17T15:48:44;4.00;99.90
12130;DHT22;6128;59.340;18.040;2023-02-17T15:51:16;4.00;99.90
12130;DHT22;6128;59.340;18.040;2023-02-17T15:53:46;4.00;99.90
12130;DHT22;6128;59.340;18.040;2023-02-17T15:56:16;4.00;99.90
12130;DHT22;6128;59.340;18.040;2023-02-17T15:58:45;4.10;99.90
12130;DHT22;6128;59.340;18.040;2023-02-17T16:01:25;4.10;99.90
12130;DHT22;6128;59.340;18.040;2023-02-17T16:03:53;4.10;99.90
12130;DHT22;6128;59.340;18.040;2023-02-17T16:06:20;4.10;99.90
12130;DHT22;6128;59.340;18.040;2023-02-17T16:08:49;4.10;99.90
12130;DHT22;6128;59.340;18.040;2023-02-17T16:11:17;4.10;99.90
12130;DHT22;6128;59.340;18.040;2023-02-17T16:13:46;4.10;99.90